Details From SBBE - Val De Caes Intl
To SBMQ - MACAPA
Flight Number -
Tags generated
Created
Modified
Stats Distance 178 nm / 330 km
Max Altitude 14,200 ft / 4,328 m
Waypoints 5
Social Downloads 0
Likes 0
Share VATSIM

Download

Looking for another format? Having issues loading an existing format? Contact us
Advertisement - Login to hide

Notes

Basic altitude profile: - Ascent Rate: 2500ft/min - Ascent Speed: 250kts - Cruise Altitude: 35000ft - Cruise Speed: 420kts - Descent Rate: 1500ft/min - Descent Speed: 250kts Options: - Use NATs: yes - Use PACOTS: yes - Use low airways: yes - Use high airways: yes

Route

SBBE ILPER G449 MCP SBMQ

ID Type Via Altitude Latitude Longitude Leg Dist Tot Dist Heading (true) Name
O SBBE APT - 0 ft / 0 m -1.38078˚ -48.47619˚ - 0 nm - Val De Caes Intl
ILPER FIX - 14,200 ft / 4,328 m -1.06200˚ -49.06183˚ 40 nm 40 nm 299° / 299° -
INDOB FIX G449 (AWY-LO) 7,500 ft / 2,286 m -0.23033˚ -50.56300˚ 103 nm 143 nm 299° / 299° -
MCP VOR G449 (AWY-LO) 2,500 ft / 762 m 0.05217˚ -51.07300˚ 35 nm 178 nm 299° / 299° MACAPA VOR-DME
O SBMQ APT - 0 ft / 0 m 0.05064˚ -51.07216˚ 0 nm 178 nm 151° / 151° MACAPA

Altitude Profile

Advertisement - Login to hide

Weather


0- 5 10 15 20 25 30 35+ Temperature / ° C

Clouds and Precipitation
Forecast for 2017-12-11 12:00 UTC. Updated 38 minutes ago

Ground ~20,000 ft ~40,000 ft Winds

SBBE

Details ICAO SBBE (BEL)
Name Val De Caes Intl
Region Brazil
Timezone America/Belem (UTC-3.0)
Stats Elevation 54 ft / 16 m (AMSL)
Location -1.380776° -48.476189°
Runways 2
Magnetic Variation 20.144° W

METAR

SBBE 111100Z 06007KT 9999 FEW015 27/24 Q1010

Decode

TAF

TAF TAF SBBE 110400Z 1106/1206 05005KT CAVOK TN24/1108Z TX32/1116Z BECMG 1110/1112 08005KT 9999 FEW015 BECMG 1113/1115 36010KT SCT025 BECMG 1118/1120 BKN035 FEW040TCU BECMG 1121/1123 06005KT FEW040 RMK PEN

Decode

Departure Runways

ID Width Length Bearing (true) Bearing (mag) Surface Threshold Offset Overrun Length
02 148 ft / 45 m 6,023 ft / 1,836 m 4.48° 24.62° Asphalt 0 ft / 0 m 194 ft / 59 m
06 148 ft / 45 m 9,215 ft / 2,809 m 45.30° 65.44° Asphalt 0 ft / 0 m 0 ft / 0 m
20 148 ft / 45 m 6,023 ft / 1,836 m 184.48° 204.62° Asphalt 0 ft / 0 m 194 ft / 59 m
24 148 ft / 45 m 9,215 ft / 2,809 m 225.30° 245.44° Asphalt 0 ft / 0 m 197 ft / 60 m

SBMQ

Details ICAO SBMQ (MCP)
Name MACAPA
Region Brazil
Timezone America/Belem (UTC-3.0)
Stats Elevation 56 ft / 17 m (AMSL)
Location 0.050639° -51.072162°
Runways 1
Magnetic Variation 19.352° W

METAR

SBMQ 111100Z 33005KT 9999 SCT015 28/26 Q1010

Decode

TAF

TAF SBMQ 110400Z 1106/1206 35005KT 9999 FEW015 TN24/1109Z TX36/1117Z BECMG 1113/1115 07015KT SCT025 BECMG 1121/1123 05010KT CAVOK RMK PEN

Decode

Destination Runways

ID Width Length Bearing (true) Bearing (mag) Surface Threshold Offset Overrun Length
08 148 ft / 45 m 6,917 ft / 2,108 m 57.22° 76.57° Asphalt 0 ft / 0 m 219 ft / 67 m
26 148 ft / 45 m 6,917 ft / 2,108 m 237.22° 256.57° Asphalt 0 ft / 0 m 219 ft / 67 m

Popular Alternatives